Alex, Oklahoma
Current Conditions -  °F | °C
As of 3:15 PM on Sunday 21 Dec 2014 (Local Time) from KCHK Reporting Station
Scattered Clouds Scattered Clouds  
Wind Chill: 43°   Ceiling: Unl
Heat Index: 48°   Visibility: 7mi
Dew Point: 46°   Wind: 14mph
Humidity: 93%   Direction: 180°S
Pressure: 29.79"   Gusts: 17mph
Location:  34.91°N, 97.78°W
Report Text: KCHK 212115Z AUTO 18012G15KT 7SM SCT014 09/08 A2979 RMK AO2
Loading
Personal Weather Stations






























Interactive Weather Map New forecast layout! Learn more

10-Day Weather Forecast

Advertisements
Track Severe Weather on mobile